Time;durP1;ratioP1;P1;durP2;ratioP2;P2;SDS_P1;SDS_P2;PMS_P1;PMS_P2;Temp;Humidity;BMP_temperature;BMP_pressure;BME280_temperature;BME280_humidity;BME280_pressure;Samples;Min_cycle;Max_cycle;Signal;HPM_P1;HPM_P2
2023/08/27 00:00:16;;;;;;;4.75;2.20;;;;;;;19.91;74.65;101008.06;5032157;28;20064;-45
2023/08/27 00:02:42;;;;;;;5.78;2.20;;;;;;;19.91;74.32;101002.78;5029770;28;20042;-44
2023/08/27 00:05:07;;;;;;;5.38;2.40;;;;;;;19.88;75.01;101001.09;5031629;28;20878;-45
2023/08/27 00:07:34;;;;;;;4.65;2.58;;;;;;;19.91;75.01;100998.34;5032095;28;20128;-45
2023/08/27 00:10:00;;;;;;;4.90;2.42;;;;;;;19.91;74.79;101006.28;5032156;28;20036;-43
2023/08/27 00:12:25;;;;;;;6.15;2.50;;;;;;;19.97;74.73;101007.94;5031509;28;20033;-45
2023/08/27 00:14:51;;;;;;;5.22;2.50;;;;;;;20.00;74.73;101005.22;5031617;28;20041;-45
2023/08/27 00:17:16;;;;;;;6.60;2.35;;;;;;;19.87;75.30;101003.75;5031845;28;20029;-46
2023/08/27 00:19:42;;;;;;;4.07;2.20;;;;;;;20.00;74.93;101002.56;5031462;28;20392;-43
2023/08/27 00:22:07;;;;;;;5.65;2.63;;;;;;;20.06;74.42;100997.16;5030092;28;20045;-43
2023/08/27 00:24:32;;;;;;;6.85;3.30;;;;;;;19.88;74.37;100998.44;5031367;28;20083;-44
2023/08/27 00:26:58;;;;;;;5.60;3.20;;;;;;;19.89;74.43;101001.94;5031427;28;20037;-43
2023/08/27 00:29:23;;;;;;;8.05;4.50;;;;;;;19.79;74.75;100996.88;5031375;28;20037;-44
2023/08/27 00:31:48;;;;;;;13.55;7.90;;;;;;;19.77;74.64;100995.13;5031450;28;20053;-43
2023/08/27 00:34:14;;;;;;;13.18;8.77;;;;;;;19.72;74.38;100982.03;5031222;28;20038;-52
2023/08/27 00:36:39;;;;;;;14.65;8.77;;;;;;;19.58;74.71;100980.59;5030777;28;20048;-44
2023/08/27 00:39:05;;;;;;;13.50;7.70;;;;;;;19.60;74.70;100986.72;5032391;28;20514;-46
2023/08/27 00:41:31;;;;;;;12.60;7.88;;;;;;;19.52;74.99;100988.69;5030799;28;20041;-49
2023/08/27 00:43:56;;;;;;;10.82;6.30;;;;;;;19.50;75.26;100985.19;5031353;28;20072;-45
2023/08/27 00:46:22;;;;;;;8.45;5.13;;;;;;;19.51;75.09;100986.94;5030504;28;20755;-46
2023/08/27 00:48:48;;;;;;;9.48;5.03;;;;;;;19.49;75.26;100978.16;5031790;28;20061;-47
2023/08/27 00:51:13;;;;;;;8.27;5.00;;;;;;;19.51;75.22;100977.22;5032046;28;20491;-45
2023/08/27 00:53:39;;;;;;;8.52;4.70;;;;;;;19.50;75.07;100971.97;5031070;28;20042;-47
2023/08/27 00:56:06;;;;;;;8.45;4.78;;;;;;;19.49;75.32;100967.56;5030670;28;20037;-43
2023/08/27 00:58:31;;;;;;;7.85;4.50;;;;;;;19.42;75.50;100965.03;5030733;28;20048;-50
2023/08/27 01:00:57;;;;;;;6.60;4.10;;;;;;;19.50;75.25;100958.75;5031046;28;20033;-45
2023/08/27 01:03:24;;;;;;;8.35;4.13;;;;;;;19.52;75.22;100956.94;5030268;28;20504;-47
2023/08/27 01:05:50;;;;;;;8.25;3.92;;;;;;;19.58;74.84;100956.81;5030395;28;20046;-51
2023/08/27 01:08:24;;;;;;;8.05;3.92;;;;;;;19.59;74.64;100956.75;5030743;28;20128;-45
2023/08/27 01:11:00;;;;;;;6.88;3.55;;;;;;;19.57;74.74;100950.66;5030424;28;20045;-45
2023/08/27 01:13:58;;;;;;;7.07;3.72;;;;;;;19.59;74.79;100948.81;5030042;28;20040;-45
2023/08/27 01:16:26;;;;;;;5.40;3.40;;;;;;;19.51;74.68;100944.63;5029449;28;20041;-48
2023/08/27 01:18:53;;;;;;;5.85;3.40;;;;;;;19.60;74.43;100936.47;5030846;28;20399;-45
2023/08/27 01:21:23;;;;;;;4.53;3.20;;;;;;;19.60;74.32;100939.97;5030460;28;20381;-45
2023/08/27 01:23:48;;;;;;;5.70;3.17;;;;;;;19.63;74.44;100934.63;5030215;28;20042;-44
2023/08/27 01:26:22;;;;;;;5.93;2.90;;;;;;;19.59;74.50;100932.06;5030458;28;20033;-45
2023/08/27 01:28:54;;;;;;;4.72;2.75;;;;;;;19.55;74.62;100933.94;5030459;28;20041;-44
2023/08/27 01:31:23;;;;;;;6.32;2.92;;;;;;;19.63;74.30;100925.84;5030583;28;20128;-49
2023/08/27 01:33:51;;;;;;;4.43;2.75;;;;;;;19.64;74.30;100925.78;5029684;28;20534;-47
2023/08/27 01:36:19;;;;;;;5.13;2.80;;;;;;;19.62;74.30;100924.09;5029842;28;20034;-49
2023/08/27 01:38:44;;;;;;;6.13;2.63;;;;;;;19.63;74.20;100925.84;5030155;28;20043;-44
2023/08/27 01:41:10;;;;;;;4.93;2.83;;;;;;;19.58;74.34;100939.13;5030323;28;20126;-44
2023/08/27 01:43:36;;;;;;;4.80;2.85;;;;;;;19.56;74.51;100942.75;5029988;28;20500;-45
2023/08/27 01:46:03;;;;;;;5.50;2.88;;;;;;;19.55;74.54;100935.69;5029524;28;20554;-48
2023/08/27 01:48:28;;;;;;;4.95;2.70;;;;;;;19.65;74.36;100937.22;5030152;28;20064;-45
2023/08/27 01:50:54;;;;;;;4.68;2.58;;;;;;;19.64;74.34;100932.88;5030255;28;20463;-46
2023/08/27 01:53:19;;;;;;;6.88;3.10;;;;;;;19.63;74.49;100932.00;5029932;28;20503;-44
2023/08/27 01:55:44;;;;;;;4.88;2.67;;;;;;;19.72;74.06;100926.47;5028176;28;20487;-44
2023/08/27 01:58:11;;;;;;;8.05;2.90;;;;;;;19.59;74.18;100927.66;5027900;28;20029;-47
2023/08/27 02:00:37;;;;;;;4.57;2.60;;;;;;;19.69;74.15;100923.91;5030710;28;20415;-48
2023/08/27 02:03:03;;;;;;;4.82;3.00;;;;;;;19.77;73.86;100932.53;5033683;28;20037;-49
2023/08/27 02:05:29;;;;;;;7.80;2.80;;;;;;;19.81;73.73;100934.22;5032638;28;20044;-45
2023/08/27 02:07:54;;;;;;;4.45;2.70;;;;;;;19.85;73.62;100940.28;5031411;28;20407;-44
2023/08/27 02:10:19;;;;;;;5.38;2.90;;;;;;;19.75;73.90;100939.66;5028694;28;20033;-46
2023/08/27 02:12:45;;;;;;;4.40;3.03;;;;;;;19.70;74.07;100946.78;5031037;28;20104;-44
2023/08/27 02:15:10;;;;;;;5.15;3.30;;;;;;;19.72;73.91;100945.00;5036045;28;20038;-43
2023/08/27 02:17:37;;;;;;;5.13;3.17;;;;;;;19.72;74.04;100938.81;5037131;28;20033;-45
2023/08/27 02:20:07;;;;;;;5.53;3.00;;;;;;;19.83;73.86;100936.78;5037170;28;20116;-48
2023/08/27 02:22:33;;;;;;;5.15;3.03;;;;;;;19.80;73.81;100932.47;5029200;28;20033;-45
2023/08/27 02:24:58;;;;;;;5.35;2.90;;;;;;;19.91;73.63;100918.09;5029255;28;20037;-44
2023/08/27 02:27:24;;;;;;;4.15;3.10;;;;;;;19.84;73.85;100923.53;5029463;28;20037;-43
2023/08/27 02:29:49;;;;;;;6.43;3.10;;;;;;;19.89;73.76;100920.78;5029648;28;20029;-43
2023/08/27 02:32:14;;;;;;;5.07;3.00;;;;;;;19.91;73.63;100912.81;5028213;28;20033;-46
2023/08/27 02:34:40;;;;;;;5.68;3.40;;;;;;;19.73;74.03;100919.41;5028879;28;20041;-49
2023/08/27 02:37:05;;;;;;;5.95;3.38;;;;;;;19.83;73.85;100923.56;5029203;28;20037;-44
2023/08/27 02:39:30;;;;;;;5.40;2.88;;;;;;;19.83;73.85;100926.22;5028975;28;20037;-51
2023/08/27 02:41:56;;;;;;;6.18;3.00;;;;;;;19.86;73.53;100934.09;5029204;28;20064;-45
2023/08/27 02:44:21;;;;;;;5.47;2.90;;;;;;;19.89;73.45;100934.00;5028849;28;20411;-43
2023/08/27 02:46:46;;;;;;;5.18;3.20;;;;;;;19.69;74.59;100939.78;5029088;28;20030;-49
2023/08/27 02:49:12;;;;;;;8.90;3.33;;;;;;;19.81;73.76;100938.63;5029405;28;20030;-43
2023/08/27 02:51:37;;;;;;;6.43;3.35;;;;;;;19.79;74.27;100935.16;5028641;28;20495;-45
2023/08/27 02:54:02;;;;;;;8.15;3.10;;;;;;;19.79;74.37;100940.44;5029369;28;20045;-46
2023/08/27 02:56:28;;;;;;;6.55;3.28;;;;;;;19.89;74.26;100934.00;5027678;28;20044;-44
2023/08/27 02:58:53;;;;;;;5.38;3.05;;;;;;;19.93;74.26;100938.34;5033274;28;20116;-49
2023/08/27 03:01:20;;;;;;;4.90;2.95;;;;;;;19.98;74.33;100935.56;5033143;28;20454;-47
2023/08/27 03:03:49;;;;;;;5.50;2.92;;;;;;;20.01;74.32;100927.53;5016288;28;20076;-47
2023/08/27 03:06:15;;;;;;;7.72;3.17;;;;;;;19.96;74.23;100938.25;5032543;28;20128;-45
2023/08/27 03:08:40;;;;;;;11.25;3.38;;;;;;;18.96;78.49;100957.19;5032838;28;20124;-45
2023/08/27 03:11:05;;;;;;;8.02;2.60;;;;;;;18.80;78.96;100975.97;5033341;28;20041;-48
2023/08/27 03:13:31;;;;;;;5.25;1.70;;;;;;;18.78;77.65;100976.03;5032861;28;20129;-43
2023/08/27 03:15:56;;;;;;;9.48;1.90;;;;;;;19.01;75.16;100971.16;5032299;28;20033;-45
2023/08/27 03:18:21;;;;;;;9.73;1.58;;;;;;;18.53;76.07;100982.63;5032763;28;20034;-43
2023/08/27 03:20:47;;;;;;;6.53;1.50;;;;;;;18.56;75.81;100977.28;5032998;28;20560;-43
2023/08/27 03:23:12;;;;;;;7.35;1.20;;;;;;;18.54;75.54;100982.56;5032917;28;20041;-46
2023/08/27 03:25:38;;;;;;;4.00;1.10;;;;;;;18.61;75.31;100978.94;5032286;28;20033;-47
2023/08/27 03:28:04;;;;;;;4.03;1.20;;;;;;;18.70;75.47;100977.94;5033039;28;20120;-44
2023/08/27 03:30:29;;;;;;;4.38;1.00;;;;;;;18.85;74.55;100964.41;5032318;28;20120;-45
2023/08/27 03:32:54;;;;;;;3.58;1.00;;;;;;;18.87;74.54;100960.00;5032868;28;20120;-49
2023/08/27 03:35:20;;;;;;;3.28;1.20;;;;;;;18.94;74.30;100955.47;5032074;28;20038;-47
2023/08/27 03:37:45;;;;;;;4.82;1.20;;;;;;;18.91;74.55;100953.75;5032106;28;20036;-45
2023/08/27 03:40:10;;;;;;;6.93;1.13;;;;;;;18.84;74.67;100954.78;5032661;28;20079;-44
2023/08/27 03:42:36;;;;;;;3.80;1.00;;;;;;;18.88;74.38;100952.94;5031825;28;20037;-46
2023/08/27 03:45:01;;;;;;;3.75;0.88;;;;;;;18.86;74.65;100944.16;5032207;28;20084;-47
2023/08/27 03:47:27;;;;;;;2.45;0.85;;;;;;;18.84;74.91;100944.22;5032265;28;20041;-45
2023/08/27 03:49:52;;;;;;;5.28;1.20;;;;;;;18.58;75.41;100928.84;5032326;28;20041;-44
2023/08/27 03:52:18;;;;;;;3.83;1.02;;;;;;;18.77;75.00;100916.19;5032083;28;20026;-46
2023/08/27 03:54:43;;;;;;;4.63;1.05;;;;;;;18.79;74.82;100903.78;5031878;28;20029;-45
2023/08/27 03:57:08;;;;;;;3.80;1.00;;;;;;;18.72;75.06;100910.13;5031951;28;20633;-44
2023/08/27 03:59:34;;;;;;;7.10;1.17;;;;;;;18.68;74.90;100907.53;5032042;28;20037;-48
2023/08/27 04:01:59;;;;;;;3.53;1.15;;;;;;;18.64;74.91;100910.25;5032077;28;20056;-47
2023/08/27 04:04:25;;;;;;;2.95;1.00;;;;;;;18.67;75.02;100904.03;5031619;28;20076;-45
2023/08/27 04:06:50;;;;;;;4.43;0.90;;;;;;;18.68;75.17;100904.91;5031494;28;20040;-49
2023/08/27 04:09:15;;;;;;;3.58;1.17;;;;;;;18.64;75.50;100909.38;5031537;28;20034;-50
2023/08/27 04:11:41;;;;;;;3.75;0.98;;;;;;;18.64;75.41;100907.63;5031394;28;20037;-45
2023/08/27 04:14:06;;;;;;;4.45;1.17;;;;;;;18.35;76.69;100928.38;5032150;28;20168;-49
2023/08/27 04:16:31;;;;;;;3.90;1.08;;;;;;;18.23;77.92;100928.59;5031222;28;20061;-44
2023/08/27 04:18:57;;;;;;;5.85;1.17;;;;;;;18.46;76.75;100928.19;5032277;28;20037;-44
2023/08/27 04:21:22;;;;;;;4.15;1.20;;;;;;;18.49;76.48;100928.97;5031367;28;20426;-46
2023/08/27 04:23:47;;;;;;;2.45;1.00;;;;;;;18.50;76.49;100930.72;5031770;28;20038;-47
2023/08/27 04:26:13;;;;;;;2.67;1.00;;;;;;;18.36;76.95;100935.38;5031532;28;20492;-50
2023/08/27 04:28:38;;;;;;;6.85;1.02;;;;;;;18.28;77.51;100939.94;5031346;28;20111;-44
2023/08/27 04:31:04;;;;;;;3.28;1.00;;;;;;;18.20;77.75;100937.41;5030541;28;20511;-49
2023/08/27 04:33:29;;;;;;;3.75;1.30;;;;;;;18.39;77.41;100934.47;5031042;28;20049;-50
2023/08/27 04:35:54;;;;;;;2.40;1.00;;;;;;;18.54;76.98;100931.56;5031484;28;20030;-45
2023/08/27 04:38:20;;;;;;;3.67;1.00;;;;;;;18.58;76.93;100923.56;5031864;28;20091;-49
2023/08/27 04:40:52;;;;;;;4.15;1.05;;;;;;;18.61;77.02;100926.16;5031184;28;20032;-47
2023/08/27 04:43:18;;;;;;;3.78;1.10;;;;;;;18.64;77.04;100927.88;5031510;28;20036;-44
2023/08/27 04:45:43;;;;;;;4.10;1.08;;;;;;;18.72;76.63;100925.09;5030639;28;20037;-45
2023/08/27 04:48:09;;;;;;;4.50;1.00;;;;;;;18.70;76.67;100933.03;5031339;28;20033;-48
2023/08/27 04:50:35;;;;;;;3.80;1.02;;;;;;;18.59;77.06;100921.81;5030739;28;20044;-49
2023/08/27 04:53:00;;;;;;;6.30;1.00;;;;;;;18.52;76.70;100922.78;5031657;28;20045;-49
2023/08/27 04:55:25;;;;;;;2.53;0.90;;;;;;;18.58;76.29;100931.50;5030307;28;20037;-46
2023/08/27 04:57:51;;;;;;;2.72;0.90;;;;;;;18.53;76.40;100928.03;5031446;28;20044;-48
2023/08/27 05:00:20;;;;;;;2.35;1.00;;;;;;;18.38;76.60;100927.44;5031257;28;20056;-51
2023/08/27 05:02:49;;;;;;;1.70;0.90;;;;;;;18.46;76.15;100923.78;5030112;28;20136;-47
2023/08/27 05:05:16;;;;;;;2.03;1.00;;;;;;;18.46;76.42;100930.81;5030319;28;20042;-48
2023/08/27 05:07:41;;;;;;;3.83;1.13;;;;;;;18.51;75.91;100935.09;5030673;28;20036;-45
2023/08/27 05:10:07;;;;;;;3.67;1.00;;;;;;;18.49;76.29;100936.91;5031040;28;20045;-51
2023/08/27 05:12:33;;;;;;;3.22;1.00;;;;;;;18.51;76.32;100939.50;5030553;28;20025;-50
2023/08/27 05:14:58;;;;;;;3.15;1.08;;;;;;;18.48;76.36;100944.88;5030247;28;20423;-44
2023/08/27 05:17:24;;;;;;;2.03;0.90;;;;;;;18.42;76.44;100943.19;5030328;28;20084;-46
2023/08/27 05:19:49;;;;;;;3.35;1.10;;;;;;;18.37;76.05;100941.53;5030335;28;20068;-50
2023/08/27 05:22:14;;;;;;;1.55;0.90;;;;;;;18.44;76.36;100941.41;5029709;28;20461;-45
2023/08/27 05:24:40;;;;;;;2.00;1.00;;;;;;;18.44;76.65;100935.25;5030070;28;20084;-51
2023/08/27 05:27:05;;;;;;;2.67;0.90;;;;;;;18.47;76.21;100933.44;5030459;28;20040;-45
2023/08/27 05:29:31;;;;;;;4.13;1.08;;;;;;;18.55;75.90;100933.31;5030159;28;20075;-43
2023/08/27 05:31:56;;;;;;;1.90;1.00;;;;;;;18.52;76.07;100926.28;5030372;28;20038;-47
2023/08/27 05:34:23;;;;;;;4.00;1.00;;;;;;;18.36;76.07;100910.78;5029771;28;20037;-47
2023/08/27 05:36:48;;;;;;;2.92;0.90;;;;;;;18.33;76.25;100906.41;5030253;28;20061;-46
2023/08/27 05:39:14;;;;;;;4.43;1.00;;;;;;;18.55;76.04;100910.41;5030302;28;20122;-44
2023/08/27 05:41:39;;;;;;;2.88;1.00;;;;;;;18.38;76.24;100912.47;5030061;28;20041;-46
2023/08/27 05:44:05;;;;;;;3.28;0.95;;;;;;;18.53;75.85;100898.13;5029625;28;20047;-44
2023/08/27 05:46:31;;;;;;;2.13;0.80;;;;;;;18.57;75.43;100897.19;5030305;28;20170;-43
2023/08/27 05:48:56;;;;;;;2.35;1.00;;;;;;;18.93;74.76;100895.59;5030594;28;20124;-45
2023/08/27 05:51:21;;;;;;;2.13;0.80;;;;;;;19.09;74.55;100889.06;5029862;28;20095;-44
2023/08/27 05:53:47;;;;;;;1.33;0.80;;;;;;;19.40;74.69;100895.44;5029941;28;20033;-49
2023/08/27 05:56:12;;;;;;;1.63;0.85;;;;;;;19.62;74.59;100897.63;5027871;28;20084;-46
2023/08/27 05:58:38;;;;;;;1.25;0.80;;;;;;;19.72;73.42;100899.16;5029790;28;20036;-45
2023/08/27 06:01:03;;;;;;;1.60;0.93;;;;;;;19.87;71.82;100887.34;5030511;28;20519;-49
2023/08/27 06:03:29;;;;;;;3.58;0.85;;;;;;;20.10;71.42;100891.16;5030222;28;20536;-45
2023/08/27 06:05:54;;;;;;;2.22;1.10;;;;;;;19.64;70.75;100887.91;5033955;28;20072;-45
2023/08/27 06:08:20;;;;;;;1.45;0.85;;;;;;;19.90;70.45;100898.72;5034112;28;20557;-45
2023/08/27 06:10:45;;;;;;;4.00;1.15;;;;;;;19.76;72.01;100900.84;5030245;28;20498;-44
2023/08/27 06:13:11;;;;;;;2.05;0.90;;;;;;;20.19;71.21;100909.44;5029473;28;20041;-44
2023/08/27 06:15:37;;;;;;;3.30;1.20;;;;;;;20.29;70.94;100907.44;5028871;28;20052;-49
2023/08/27 06:18:04;;;;;;;2.00;1.17;;;;;;;20.41;71.05;100901.84;5029798;28;20481;-45
2023/08/27 06:20:30;;;;;;;3.28;1.10;;;;;;;20.71;70.35;100904.56;5029206;28;20515;-45
2023/08/27 06:22:55;;;;;;;5.15;1.65;;;;;;;20.80;69.22;100902.53;5029702;28;20037;-46
2023/08/27 06:25:23;;;;;;;4.20;1.63;;;;;;;21.09;69.19;100907.00;5026196;28;20025;-48
2023/08/27 06:27:50;;;;;;;5.28;1.60;;;;;;;21.30;69.39;100909.03;5029795;28;20646;-47
2023/08/27 06:30:15;;;;;;;3.83;1.75;;;;;;;21.59;69.21;100907.28;5029353;28;20041;-47
2023/08/27 06:32:40;;;;;;;4.38;1.98;;;;;;;22.57;64.99;100916.38;5027325;28;20032;-49
2023/08/27 06:35:06;;;;;;;8.95;2.20;;;;;;;22.48;63.29;100917.59;5027686;28;20071;-45
2023/08/27 06:37:31;;;;;;;5.03;2.78;;;;;;;23.35;64.76;100923.28;5028609;28;20040;-45
2023/08/27 06:39:57;;;;;;;7.70;2.80;;;;;;;23.38;61.13;100916.94;5029479;28;20030;-49
2023/08/27 06:42:22;;;;;;;5.10;3.10;;;;;;;23.12;61.93;100917.06;5028737;28;20593;-51
2023/08/27 06:44:48;;;;;;;6.88;3.38;;;;;;;22.80;62.25;100926.25;5029451;28;20107;-47
2023/08/27 06:47:13;;;;;;;6.47;3.35;;;;;;;22.99;64.82;100924.66;5029081;28;20048;-45
2023/08/27 06:49:38;;;;;;;7.60;4.30;;;;;;;23.19;63.51;100927.41;5028984;28;20039;-43
2023/08/27 06:52:04;;;;;;;7.22;3.78;;;;;;;22.64;64.45;100920.56;5029054;28;20495;-49
2023/08/27 06:54:30;;;;;;;8.00;4.40;;;;;;;22.55;66.09;100924.44;5028783;28;20041;-50
2023/08/27 06:56:55;;;;;;;6.50;4.57;;;;;;;22.61;67.01;100926.88;5028884;28;20033;-45
2023/08/27 06:59:20;;;;;;;10.48;4.80;;;;;;;22.30;65.31;100926.19;5028748;28;20033;-53
2023/08/27 07:01:46;;;;;;;11.18;5.40;;;;;;;22.40;66.70;100922.28;5029159;28;20431;-44
2023/08/27 07:04:11;;;;;;;6.78;4.40;;;;;;;21.74;68.21;100928.91;5029214;28;20072;-44
2023/08/27 07:06:36;;;;;;;9.75;3.83;;;;;;;21.35;67.40;100919.50;5028261;28;20037;-52
2023/08/27 07:09:04;;;;;;;7.22;3.60;;;;;;;21.98;65.90;100921.97;5027953;28;20026;-47
2023/08/27 07:11:29;;;;;;;4.85;3.17;;;;;;;21.59;65.62;100915.25;5028551;28;20044;-47
2023/08/27 07:13:55;;;;;;;6.93;3.03;;;;;;;21.75;66.05;100904.09;5028984;28;20042;-48
2023/08/27 07:16:20;;;;;;;5.85;2.95;;;;;;;21.51;65.48;100901.34;5028821;28;20037;-45
2023/08/27 07:18:46;;;;;;;3.85;2.83;;;;;;;21.53;66.24;100904.84;5029019;28;20029;-48
2023/08/27 07:21:12;;;;;;;4.32;2.58;;;;;;;21.49;66.86;100901.38;5027977;28;20158;-46
2023/08/27 07:23:37;;;;;;;4.38;2.60;;;;;;;21.49;67.48;100890.78;5027804;28;20041;-49
2023/08/27 07:26:03;;;;;;;4.70;2.50;;;;;;;21.98;68.84;100874.19;5027929;28;20033;-43
2023/08/27 07:28:29;;;;;;;3.28;1.83;;;;;;;22.74;66.17;100866.22;5029232;28;20044;-50
2023/08/27 07:30:55;;;;;;;2.72;1.83;;;;;;;22.86;61.04;100871.06;5028762;28;20030;-46
2023/08/27 07:33:20;;;;;;;5.43;1.60;;;;;;;23.56;60.31;100867.50;5030021;28;20523;-47
2023/08/27 07:35:45;;;;;;;4.05;1.70;;;;;;;22.23;63.61;100877.72;5031850;28;20045;-45
2023/08/27 07:38:11;;;;;;;4.15;1.80;;;;;;;22.16;64.37;100881.50;5033946;28;20033;-45
2023/08/27 07:40:36;;;;;;;2.30;1.50;;;;;;;22.05;63.77;100869.53;5028912;28;20116;-44
2023/08/27 07:43:03;;;;;;;3.65;1.60;;;;;;;22.54;64.13;100868.69;5029582;28;20041;-47
2023/08/27 07:45:28;;;;;;;2.20;1.60;;;;;;;22.89;62.12;100856.78;5038214;28;20044;-46
2023/08/27 07:47:54;;;;;;;3.00;1.63;;;;;;;22.54;63.07;100860.72;5041550;28;20033;-47
2023/08/27 07:50:19;;;;;;;3.10;1.65;;;;;;;22.55;62.10;100878.41;5039755;28;20037;-46
2023/08/27 07:52:44;;;;;;;4.65;1.60;;;;;;;22.77;62.59;100871.41;5034629;28;20060;-44
2023/08/27 07:55:10;;;;;;;4.28;1.50;;;;;;;22.44;62.85;100870.81;5032144;28;20041;-45
2023/08/27 07:57:35;;;;;;;4.25;1.60;;;;;;;22.36;62.33;100874.66;5032095;28;20030;-46
2023/08/27 08:00:01;;;;;;;3.00;1.42;;;;;;;22.03;62.56;100871.34;5032424;28;20038;-49
2023/08/27 08:02:26;;;;;;;2.30;1.30;;;;;;;21.84;61.92;100873.72;5031540;28;20061;-47
2023/08/27 08:04:51;;;;;;;2.13;1.30;;;;;;;21.20;63.70;100873.13;5030476;28;20041;-45
2023/08/27 08:07:17;;;;;;;3.88;1.35;;;;;;;20.97;64.34;100886.16;5031189;28;20029;-46
2023/08/27 08:09:42;;;;;;;2.83;1.30;;;;;;;20.76;65.75;100879.69;5032058;28;20030;-42
2023/08/27 08:12:07;;;;;;;3.45;1.40;;;;;;;20.49;66.51;100886.59;5032049;28;20663;-46
2023/08/27 08:14:33;;;;;;;3.33;1.30;;;;;;;20.43;67.08;100876.19;5031691;28;20041;-43
2023/08/27 08:16:58;;;;;;;4.35;1.40;;;;;;;20.01;67.46;100882.56;5031443;28;20033;-43
2023/08/27 08:19:24;;;;;;;2.60;1.40;;;;;;;20.26;67.17;100876.59;5031871;28;20053;-44
2023/08/27 08:21:49;;;;;;;2.72;1.30;;;;;;;20.08;67.41;100884.16;5031625;28;20099;-45
2023/08/27 08:24:14;;;;;;;2.28;1.40;;;;;;;20.35;67.26;100891.41;5031826;28;20518;-46
2023/08/27 08:26:40;;;;;;;2.83;1.50;;;;;;;20.49;67.85;100897.19;5031039;28;20037;-47
2023/08/27 08:29:06;;;;;;;2.65;1.15;;;;;;;20.69;66.92;100898.44;5029653;28;20033;-48
2023/08/27 08:31:31;;;;;;;4.22;1.40;;;;;;;20.19;68.12;100896.19;5031081;28;20668;-44
2023/08/27 08:33:56;;;;;;;2.33;1.35;;;;;;;20.64;67.04;100904.75;5031656;28;20036;-45
2023/08/27 08:36:22;;;;;;;5.55;1.00;;;;;;;20.59;64.16;100903.13;5030779;28;20033;-44
2023/08/27 08:38:47;;;;;;;4.68;1.30;;;;;;;20.61;65.16;100907.47;5031650;28;20034;-46
2023/08/27 08:41:18;;;;;;;3.30;1.27;;;;;;;20.80;64.83;100910.47;5031436;28;20080;-49
2023/08/27 08:43:48;;;;;;;3.85;1.00;;;;;;;20.68;65.26;100905.50;5030875;28;20488;-44
2023/08/27 08:46:17;;;;;;;2.28;1.00;;;;;;;20.97;63.99;100904.72;5030027;28;20095;-45
2023/08/27 08:48:47;;;;;;;1.45;1.00;;;;;;;21.42;64.17;100910.44;5030942;28;20029;-44
2023/08/27 08:51:13;;;;;;;2.28;0.90;;;;;;;21.81;62.43;100906.56;5031527;28;20030;-45
2023/08/27 08:53:44;;;;;;;2.00;1.00;;;;;;;22.08;61.97;100909.28;5030760;28;20037;-43
2023/08/27 08:56:14;;;;;;;2.55;0.80;;;;;;;22.23;59.43;100914.03;5030470;28;20037;-46
2023/08/27 08:58:42;;;;;;;3.53;1.02;;;;;;;21.93;60.88;100907.06;5030734;28;20561;-44
2023/08/27 09:01:08;;;;;;;1.88;0.90;;;;;;;21.38;61.95;100907.03;5031355;28;20044;-44
2023/08/27 09:03:35;;;;;;;2.42;0.95;;;;;;;21.81;62.10;100905.69;5030536;28;20061;-44
2023/08/27 09:06:01;;;;;;;1.30;0.80;;;;;;;22.33;59.93;100904.81;5030282;28;20065;-46
2023/08/27 09:08:28;;;;;;;2.72;0.90;;;;;;;21.66;61.28;100917.63;5030394;28;20033;-48
2023/08/27 09:10:54;;;;;;;3.67;1.30;;;;;;;21.24;61.80;100911.00;5030700;28;20042;-49
2023/08/27 09:13:20;;;;;;;2.67;1.05;;;;;;;21.50;61.12;100908.44;5030535;28;20065;-44
2023/08/27 09:15:50;;;;;;;1.85;1.08;;;;;;;21.58;60.40;100905.56;5029883;28;20711;-43
2023/08/27 09:18:16;;;;;;;1.45;0.80;;;;;;;21.76;59.73;100891.69;5030726;28;20499;-42
2023/08/27 09:20:42;;;;;;;2.75;0.90;;;;;;;21.30;60.29;100898.44;5029931;28;20046;-45
2023/08/27 09:23:09;;;;;;;1.73;0.90;;;;;;;20.86;62.54;100893.56;5030628;28;20057;-43
2023/08/27 09:25:36;;;;;;;1.38;0.80;;;;;;;20.39;62.67;100900.13;5028911;28;20053;-47
2023/08/27 09:28:01;;;;;;;1.98;0.98;;;;;;;20.64;62.58;100896.78;5030655;28;20033;-45
2023/08/27 09:30:26;;;;;;;3.08;1.00;;;;;;;20.54;62.71;100892.66;5030162;28;20037;-44
2023/08/27 09:32:52;;;;;;;9.23;1.17;;;;;;;20.04;65.01;100899.25;5030924;28;20087;-43
2023/08/27 09:35:17;;;;;;;3.38;1.00;;;;;;;20.00;65.79;100896.72;5029846;28;20040;-47
2023/08/27 09:37:43;;;;;;;3.15;0.93;;;;;;;19.78;66.21;100894.59;5030271;28;20180;-45
2023/08/27 09:40:10;;;;;;;1.80;0.98;;;;;;;19.89;66.10;100889.03;5031407;28;20038;-46
2023/08/27 09:42:37;;;;;;;2.45;1.17;;;;;;;20.03;65.65;100894.84;5029235;28;20038;-44
2023/08/27 09:45:03;;;;;;;5.55;3.08;;;;;;;19.69;66.38;100892.19;5030346;28;20033;-45
2023/08/27 09:47:36;;;;;;;3.08;1.20;;;;;;;19.60;67.42;100894.16;5030888;28;20048;-46
2023/08/27 09:50:07;;;;;;;2.95;1.20;;;;;;;19.60;67.70;100892.38;5030358;28;20036;-45
2023/08/27 09:52:33;;;;;;;2.85;1.20;;;;;;;19.65;67.92;100894.91;5029438;28;20037;-44
2023/08/27 09:54:58;;;;;;;3.00;1.20;;;;;;;19.41;68.25;100896.31;5030007;28;20124;-43
2023/08/27 09:57:24;;;;;;;2.75;1.20;;;;;;;19.21;69.58;100898.53;5030135;28;20061;-46
2023/08/27 09:59:50;;;;;;;2.20;1.08;;;;;;;19.45;68.88;100900.66;5030608;28;20037;-44
2023/08/27 10:02:16;;;;;;;2.97;1.08;;;;;;;19.19;69.52;100909.13;5029645;28;20041;-46
2023/08/27 10:04:49;;;;;;;3.08;1.27;;;;;;;19.09;71.20;100918.16;5029767;28;20167;-43
2023/08/27 10:07:16;;;;;;;2.07;0.97;;;;;;;19.18;70.25;100915.31;5028840;28;20039;-45
2023/08/27 10:09:41;;;;;;;3.20;0.95;;;;;;;19.34;69.56;100911.44;5029471;28;20356;-46
2023/08/27 10:12:09;;;;;;;2.65;1.00;;;;;;;19.30;69.93;100903.63;5029638;28;20129;-46
2023/08/27 10:14:40;;;;;;;5.50;1.35;;;;;;;18.99;71.84;100909.56;5029400;28;20029;-46
2023/08/27 10:17:05;;;;;;;1.45;0.80;;;;;;;19.09;71.68;100912.03;5029420;28;20037;-47
2023/08/27 10:19:34;;;;;;;2.95;0.90;;;;;;;19.11;71.18;100911.06;5029510;28;20029;-44
2023/08/27 10:22:00;;;;;;;2.15;0.98;;;;;;;19.44;71.07;100915.63;5029452;28;20038;-44
2023/08/27 10:24:25;;;;;;;2.63;1.00;;;;;;;19.67;69.67;100912.50;5028053;28;20048;-46
2023/08/27 10:26:51;;;;;;;2.60;0.80;;;;;;;19.77;69.34;100911.34;5029299;28;20060;-45
2023/08/27 10:29:17;;;;;;;2.38;0.80;;;;;;;19.83;68.92;100908.56;5029680;28;20100;-44
2023/08/27 10:31:43;;;;;;;2.03;1.08;;;;;;;19.81;69.12;100907.75;5028980;28;20030;-43
2023/08/27 10:34:09;;;;;;;2.20;0.80;;;;;;;20.28;68.31;100913.63;5029202;28;20462;-47
2023/08/27 10:36:37;;;;;;;3.80;1.00;;;;;;;20.08;69.95;100915.91;5028509;28;20034;-46
2023/08/27 10:39:04;;;;;;;1.80;0.80;;;;;;;20.39;67.62;100923.97;5029634;28;20042;-47
2023/08/27 10:41:30;;;;;;;3.70;0.90;;;;;;;21.00;66.63;100926.69;5028966;28;20033;-47
2023/08/27 10:43:55;;;;;;;4.85;0.90;;;;;;;20.63;67.55;100923.31;5029055;28;20120;-44
2023/08/27 10:46:24;;;;;;;5.32;1.10;;;;;;;21.11;65.72;100917.53;5029051;28;20137;-47
2023/08/27 10:48:54;;;;;;;2.25;1.10;;;;;;;20.87;66.42;100921.75;5029274;28;20045;-44
2023/08/27 10:51:23;;;;;;;5.07;1.30;;;;;;;21.41;66.02;100921.97;5029007;28;20041;-47
2023/08/27 10:53:49;;;;;;;5.38;2.70;;;;;;;21.33;64.92;100924.00;5028847;28;20040;-51
2023/08/27 10:56:47;;;;;;;4.38;1.40;;;;;;;21.67;66.29;100929.13;5028889;28;20049;-45
2023/08/27 10:59:28;;;;;;;5.07;1.00;;;;;;;22.16;64.21;100933.75;5009132;28;20026;-42
2023/08/27 11:01:53;;;;;;;3.08;0.82;;;;;;;21.97;63.21;100932.63;5028831;28;20050;-45
2023/08/27 11:04:19;;;;;;;2.92;0.93;;;;;;;22.09;62.28;100937.53;5029265;28;20538;-46
2023/08/27 11:06:46;;;;;;;2.75;0.73;;;;;;;22.56;60.17;100944.78;5028503;28;20029;-45
2023/08/27 11:09:24;;;;;;;2.65;0.60;;;;;;;22.49;58.16;100953.00;5029265;28;20061;-44
2023/08/27 11:11:51;;;;;;;1.52;0.68;;;;;;;22.12;54.81;100940.09;5020733;28;20033;-45
2023/08/27 11:14:19;;;;;;;3.63;0.80;;;;;;;22.44;56.77;100944.34;5029201;28;20049;-46
2023/08/27 11:17:05;;;;;;;2.17;0.80;;;;;;;22.42;57.83;100944.38;5028275;28;20116;-43
2023/08/27 11:19:32;;;;;;;3.30;0.80;;;;;;;22.67;55.87;100939.06;5032165;28;20041;-44